Florence, Nebraska
Current Conditions -  °F | °C
As of 6:52 AM on Saturday 25 Oct 2014 (Local Time) from KOMA Reporting Station
Clear Clear  
Wind Chill: 45°   Ceiling: Unl
Heat Index: 49°   Visibility: 10mi
Dew Point: 46°   Wind: 9mph
Humidity: 90%   Direction: 360°N
Pressure: 30.06"   Gusts: NA
Location:  41.3574°N, 96.0026°W
Report Text: KOMA 251152Z 36008KT 10SM CLR 09/08 A3006 RMK AO2 SLP178 T00940078 10111 20072 51011
Loading
Personal Weather Stations






























Interactive Weather Map
Tropical Storm Tracking
New forecast layout! Learn more

10-Day Weather Forecast

Advertisements
Track Severe Weather on mobile